Alplaus, NY

2:06 AM EDT on July 28, 2016 (GMT -0400)
NonFedAWOS | | Change Station

Elev 377 ft 42.85 °N, 73.93 °W | Updated 57 minutes ago

Partly Cloudy
Partly Cloudy
70 °F
Feels Like 70 °F
N
0
Wind Variable Wind from North
Gusts 0.0 mph

Today
High -- | Low -- °F
--% Chance of Precip.
Yesterday
High -- | Low -- °F
Precip. -- in
Pressure 29.91 in
Visibility 10.0 miles
Clouds Few 26000 ft
Dew Point 61 °F
Humidity 73%
Rainfall in
Snow Depth Not available.
5:43 AM 8:20 PM
Waning Crescent, 35% visible
METAR KALB 280551Z 00000KT 10SM FEW260 20/16 A2991 RMK AO2 SLP126 T02000161 10283 20194 53001
Pressure 29.91 in
Visibility 10.0 miles
Clouds Few 26000 ft
Dew Point 61 °F
Humidity 73%
Rainfall in
Snow Depth Not available.
5:43 AM 8:20 PM
Waning Crescent, 35% visible
METAR KALB 280551Z 00000KT 10SM FEW260 20/16 A2991 RMK AO2 SLP126 T02000161 10283 20194 53001

10-Day Weather Forecast

Almanac

Astronomy

Jul. 28, 2016 Rise Set
Actual Time
Civil Twilight
Nautical Twilight
Astronomical Twilight
Moon
Length of Visible Light
Length of Day
Tomorrow will be .
, % of the Moon is Illuminated

Today's Extremes

State Highs State Lows

Community

WunderPhotos

Upload Photos

1,928,064 photos uploaded!

WunderBlog® & News

Nearby

Air Quality

  Air Quality AQ Index Pollutant
Not available.

Snow Depth

Station Depth Elevation

Earthquake Activity

City Distance Mag. Time & Date
Minimum magnitude displayed is 2.5.

Coastal Water Temperatures

Place Temperature

Stations

Nearby Weather Stations

Station Location Temp. Windchill Dew Point Humidity Wind Precip. Elev Updated Type
                   

Watches & Warnings

There are currently no watches in effect.